createdAt,value
2023-03-21T00:00:05.720Z,11.12
2023-03-21T00:02:33.600Z,10.91
2023-03-21T00:05:13.258Z,10.80
2023-03-21T00:07:44.367Z,10.48
2023-03-21T00:10:18.129Z,10.42
2023-03-21T00:12:50.445Z,10.31
2023-03-21T00:15:20.550Z,10.29
2023-03-21T00:17:50.669Z,10.22
2023-03-21T00:20:18.608Z,10.14
2023-03-21T00:22:47.628Z,10.00
2023-03-21T00:25:15.367Z,9.90
2023-03-21T00:28:00.961Z,9.95
2023-03-21T00:30:30.769Z,9.81
2023-03-21T00:33:01.546Z,9.79
2023-03-21T00:38:21.152Z,9.79
2023-03-21T00:40:49.426Z,9.80
2023-03-21T00:43:19.407Z,9.60
2023-03-21T00:45:47.845Z,9.54
2023-03-21T00:48:16.116Z,9.51
2023-03-21T00:50:46.957Z,9.44
2023-03-21T00:53:15.754Z,9.44
2023-03-21T00:55:44.759Z,9.38
2023-03-21T00:58:12.895Z,9.31
2023-03-21T01:00:41.281Z,9.43
2023-03-21T01:03:23.773Z,9.53
2023-03-21T01:06:07.046Z,9.51
2023-03-21T01:08:51.298Z,9.54
2023-03-21T01:11:23.307Z,9.74
2023-03-21T01:13:55.990Z,9.90
2023-03-21T01:16:28.337Z,10.06
2023-03-21T01:18:56.410Z,10.08
2023-03-21T01:21:24.263Z,10.13
2023-03-21T01:23:52.151Z,10.18
2023-03-21T01:26:21.421Z,10.01
2023-03-21T01:28:49.148Z,10.08
2023-03-21T01:31:18.662Z,10.09
2023-03-21T01:33:46.382Z,10.15
2023-03-21T01:36:19.240Z,10.03
2023-03-21T01:38:48.469Z,10.06
2023-03-21T01:41:33.523Z,10.06
2023-03-21T01:44:05.331Z,10.22
2023-03-21T01:46:51.491Z,10.12
2023-03-21T01:49:26.115Z,9.92
2023-03-21T01:52:06.578Z,9.84
2023-03-21T01:54:41.471Z,9.83
2023-03-21T01:57:13.172Z,10.02
2023-03-21T01:59:43.805Z,10.08
2023-03-21T02:02:17.837Z,10.09
2023-03-21T02:04:56.043Z,9.92
2023-03-21T02:07:29.236Z,9.70
2023-03-21T02:09:57.421Z,9.62
2023-03-21T02:12:27.477Z,9.52
2023-03-21T02:14:56.580Z,9.48
2023-03-21T02:17:32.046Z,9.41
2023-03-21T02:20:29.758Z,9.39
2023-03-21T02:23:20.965Z,9.10
2023-03-21T02:26:28.450Z,8.96
2023-03-21T02:29:09.360Z,8.85
2023-03-21T02:31:43.899Z,8.73
2023-03-21T02:34:42.180Z,8.81
2023-03-21T02:37:28.952Z,8.64
2023-03-21T02:40:11.108Z,8.58
2023-03-21T02:43:00.069Z,8.50
2023-03-21T02:45:35.992Z,8.58
2023-03-21T02:48:12.157Z,8.51
2023-03-21T02:50:49.371Z,8.56
2023-03-21T02:53:22.334Z,8.45
2023-03-21T02:56:15.695Z,8.53
2023-03-21T02:58:44.378Z,8.56
2023-03-21T03:01:12.428Z,8.48
2023-03-21T03:03:40.051Z,8.32
2023-03-21T03:06:18.091Z,8.29
2023-03-21T03:09:11.312Z,8.27
2023-03-21T03:11:42.345Z,8.16
2023-03-21T03:14:44.211Z,8.09
2023-03-21T03:17:31.470Z,8.08
2023-03-21T03:20:16.658Z,8.09
2023-03-21T03:22:51.843Z,8.07
2023-03-21T03:25:39.891Z,8.25
2023-03-21T03:28:12.265Z,8.07
2023-03-21T03:30:48.874Z,8.11
2023-03-21T03:33:27.037Z,7.92
2023-03-21T03:36:04.956Z,7.95
2023-03-21T03:38:37.136Z,8.10
2023-03-21T03:41:11.698Z,8.02
2023-03-21T03:43:44.367Z,7.94
2023-03-21T03:46:17.389Z,7.88
2023-03-21T03:48:50.184Z,7.92
2023-03-21T03:51:24.566Z,7.71
2023-03-21T03:53:56.786Z,7.76
2023-03-21T03:56:27.072Z,7.73
2023-03-21T03:58:54.941Z,7.68
2023-03-21T04:01:22.661Z,7.75
2023-03-21T04:03:56.442Z,7.78
2023-03-21T04:06:32.581Z,7.86
2023-03-21T04:09:03.495Z,7.80
2023-03-21T04:11:34.744Z,7.72
2023-03-21T04:14:02.544Z,7.75
2023-03-21T04:16:32.820Z,7.75
2023-03-21T04:19:02.178Z,7.75
2023-03-21T04:21:30.053Z,7.72
2023-03-21T04:23:57.693Z,7.82
2023-03-21T04:26:32.866Z,7.79
2023-03-21T04:29:02.980Z,7.87
2023-03-21T04:31:33.836Z,7.83
2023-03-21T04:34:03.854Z,7.80
2023-03-21T04:36:38.675Z,7.83
2023-03-21T04:39:12.262Z,7.78
2023-03-21T04:41:40.842Z,7.79
2023-03-21T04:44:11.757Z,7.83
2023-03-21T04:46:39.899Z,7.78
2023-03-21T04:49:08.394Z,7.71
2023-03-21T04:51:36.638Z,7.78
2023-03-21T04:54:05.748Z,7.83
2023-03-21T04:56:34.349Z,7.86
2023-03-21T04:59:06.289Z,7.93
2023-03-21T05:01:35.369Z,7.86
2023-03-21T05:04:04.295Z,7.79
2023-03-21T05:06:32.215Z,7.76
2023-03-21T05:09:05.523Z,7.81
2023-03-21T05:11:35.898Z,7.78
2023-03-21T05:14:03.635Z,7.86
2023-03-21T05:16:31.414Z,7.77
2023-03-21T05:19:04.095Z,7.75
2023-03-21T05:21:34.183Z,7.76
2023-03-21T05:24:03.627Z,7.82
2023-03-21T05:26:31.495Z,7.90
2023-03-21T05:28:59.253Z,7.87
2023-03-21T05:31:27.050Z,7.97
2023-03-21T05:33:54.824Z,7.91
2023-03-21T05:36:23.896Z,7.93
2023-03-21T05:38:51.584Z,8.05
2023-03-21T05:41:21.459Z,8.08
2023-03-21T05:43:49.121Z,8.18
2023-03-21T05:46:16.971Z,8.18
2023-03-21T05:48:44.726Z,8.21
2023-03-21T05:51:12.375Z,8.16
2023-03-21T05:53:41.713Z,8.06
2023-03-21T05:56:10.674Z,8.19
2023-03-21T05:58:38.563Z,8.22
2023-03-21T06:01:07.065Z,8.33
2023-03-21T06:03:34.811Z,8.39
2023-03-21T06:06:03.423Z,8.45
2023-03-21T06:08:31.752Z,8.43
2023-03-21T06:11:00.901Z,8.47
2023-03-21T06:13:28.637Z,8.54
2023-03-21T06:15:56.572Z,8.66
2023-03-21T06:18:24.286Z,8.76
2023-03-21T06:20:51.966Z,8.84
2023-03-21T06:23:19.758Z,9.04
2023-03-21T06:25:49.242Z,9.17
2023-03-21T06:28:18.352Z,9.23
2023-03-21T06:30:46.053Z,9.16
2023-03-21T06:33:13.778Z,9.11
2023-03-21T06:35:41.666Z,9.12
2023-03-21T06:38:09.552Z,9.23
2023-03-21T06:40:39.112Z,9.37
2023-03-21T06:43:06.794Z,9.42
2023-03-21T06:45:36.264Z,9.40
2023-03-21T06:48:04.170Z,9.43
2023-03-21T06:50:31.953Z,9.41
2023-03-21T06:53:00.025Z,9.37
2023-03-21T06:55:28.921Z,9.35
2023-03-21T06:57:57.510Z,9.43
2023-03-21T07:00:27.322Z,9.48
2023-03-21T07:02:56.566Z,9.52
2023-03-21T07:05:24.545Z,9.57
2023-03-21T07:07:52.361Z,9.69
2023-03-21T07:10:20.388Z,9.97
2023-03-21T07:12:48.208Z,9.97
2023-03-21T07:15:16.356Z,9.97
2023-03-21T07:17:44.070Z,10.34
2023-03-21T07:20:14.263Z,10.53
2023-03-21T07:22:42.337Z,10.67
2023-03-21T07:25:11.387Z,10.83
2023-03-21T07:27:40.879Z,11.05
2023-03-21T07:30:11.776Z,11.29
2023-03-21T07:32:40.207Z,11.54
2023-03-21T07:35:11.331Z,11.89
2023-03-21T07:37:41.390Z,11.97
2023-03-21T07:40:12.395Z,12.39
2023-03-21T07:42:41.339Z,12.82
2023-03-21T07:45:11.239Z,13.08
2023-03-21T07:47:38.975Z,13.14
2023-03-21T07:50:07.602Z,12.99
2023-03-21T07:52:35.765Z,13.27
2023-03-21T07:55:05.662Z,13.46
2023-03-21T07:57:33.771Z,13.63
2023-03-21T08:00:01.506Z,13.95
2023-03-21T08:02:29.355Z,14.27
2023-03-21T08:04:57.450Z,14.71
2023-03-21T08:07:27.180Z,15.20
2023-03-21T08:09:54.938Z,15.57
2023-03-21T08:12:24.074Z,15.46
2023-03-21T08:14:52.021Z,15.58
2023-03-21T08:17:19.722Z,15.99
2023-03-21T08:19:47.347Z,16.05
2023-03-21T08:22:15.093Z,15.45
2023-03-21T08:24:43.117Z,14.96
2023-03-21T08:27:10.897Z,14.72
2023-03-21T08:29:42.266Z,14.76
2023-03-21T08:32:11.115Z,14.26
2023-03-21T08:34:38.820Z,13.95
2023-03-21T08:37:07.076Z,14.10
2023-03-21T08:39:34.916Z,14.09
2023-03-21T08:42:02.535Z,13.92
2023-03-21T08:44:30.267Z,13.89
2023-03-21T08:46:59.197Z,13.70
2023-03-21T08:49:27.392Z,13.97
2023-03-21T08:51:57.078Z,13.89
2023-03-21T08:54:25.164Z,13.55
2023-03-21T08:56:52.899Z,13.46
2023-03-21T08:59:20.795Z,13.90
2023-03-21T09:01:48.786Z,13.85
2023-03-21T09:04:19.160Z,14.34
2023-03-21T09:06:48.842Z,14.43
2023-03-21T09:09:16.773Z,14.50
2023-03-21T09:11:45.067Z,14.52
2023-03-21T09:14:13.047Z,14.41
2023-03-21T09:16:41.300Z,14.47
2023-03-21T09:19:09.683Z,14.77
2023-03-21T09:21:39.226Z,15.42
2023-03-21T09:24:08.006Z,14.77
2023-03-21T09:26:36.012Z,14.74
2023-03-21T09:29:04.980Z,15.05
2023-03-21T09:31:32.898Z,15.04
2023-03-21T09:34:01.166Z,14.85
2023-03-21T09:36:35.007Z,14.60
2023-03-21T09:39:05.039Z,14.85
2023-03-21T09:41:47.837Z,14.69
2023-03-21T09:44:37.527Z,14.87
2023-03-21T09:47:17.205Z,14.48
2023-03-21T09:49:51.897Z,14.92
2023-03-21T09:52:26.178Z,15.10
2023-03-21T09:54:55.765Z,15.33
2023-03-21T09:57:33.006Z,14.75
2023-03-21T10:00:09.479Z,15.30
2023-03-21T10:02:40.210Z,15.16
2023-03-21T10:05:17.653Z,15.07
2023-03-21T10:07:51.412Z,15.01
2023-03-21T10:10:24.720Z,14.67
2023-03-21T10:12:55.192Z,14.65
2023-03-21T10:15:25.578Z,14.69
2023-03-21T10:17:59.305Z,14.52
2023-03-21T10:20:31.682Z,14.03
2023-03-21T10:23:02.301Z,14.00
2023-03-21T10:25:35.187Z,13.92
2023-03-21T10:28:04.722Z,14.06
2023-03-21T10:30:41.245Z,14.05
2023-03-21T10:33:14.507Z,14.31
2023-03-21T10:35:46.369Z,14.33
2023-03-21T10:38:17.531Z,14.47
2023-03-21T10:40:47.242Z,14.31
2023-03-21T10:43:30.982Z,14.56
2023-03-21T10:45:59.212Z,14.39
2023-03-21T10:48:27.069Z,14.22
2023-03-21T10:50:56.434Z,14.44
2023-03-21T10:53:30.777Z,14.44
2023-03-21T10:56:01.756Z,14.50
2023-03-21T10:58:33.306Z,14.39
2023-03-21T11:01:04.764Z,14.41
2023-03-21T11:03:34.868Z,14.72
2023-03-21T11:06:08.597Z,14.64
2023-03-21T11:08:41.582Z,14.62
2023-03-21T11:11:15.451Z,15.00
2023-03-21T11:13:45.240Z,15.25
2023-03-21T11:16:19.954Z,15.24
2023-03-21T11:18:53.227Z,15.32
2023-03-21T11:21:29.598Z,15.26
2023-03-21T11:23:58.361Z,15.31
2023-03-21T11:26:32.303Z,15.29
2023-03-21T11:29:00.763Z,15.50
2023-03-21T11:31:39.711Z,14.94
2023-03-21T11:34:09.737Z,15.27
2023-03-21T11:36:39.726Z,15.20
2023-03-21T11:39:31.345Z,15.18
2023-03-21T11:42:01.394Z,15.26
2023-03-21T11:44:32.420Z,15.21
2023-03-21T11:47:00.907Z,15.41
2023-03-21T11:49:29.404Z,15.31
2023-03-21T11:52:13.442Z,15.62
2023-03-21T11:54:57.334Z,15.88
2023-03-21T11:57:38.250Z,15.69
2023-03-21T12:00:17.759Z,16.08
2023-03-21T12:03:23.880Z,16.10
2023-03-21T12:05:56.109Z,16.15
2023-03-21T12:08:35.733Z,16.51
2023-03-21T12:11:13.620Z,16.26
2023-03-21T12:13:53.152Z,16.37
2023-03-21T12:16:29.515Z,16.21
2023-03-21T12:19:09.630Z,16.17
2023-03-21T12:21:46.976Z,16.50
2023-03-21T12:24:21.890Z,16.85
2023-03-21T12:26:59.298Z,16.62
2023-03-21T12:29:52.228Z,16.55
2023-03-21T12:32:35.608Z,16.53
2023-03-21T12:35:17.343Z,16.00
2023-03-21T12:37:57.390Z,16.23
2023-03-21T12:40:40.012Z,16.12
2023-03-21T12:43:26.473Z,16.14
2023-03-21T12:46:00.195Z,16.36
2023-03-21T12:48:39.035Z,16.29
2023-03-21T12:51:12.657Z,16.40
2023-03-21T12:53:51.286Z,16.17
2023-03-21T12:56:23.832Z,16.30
2023-03-21T12:58:57.054Z,16.58
2023-03-21T13:01:27.320Z,16.60
2023-03-21T13:04:09.389Z,16.04
2023-03-21T13:06:40.531Z,16.03
2023-03-21T13:09:14.489Z,15.87
2023-03-21T13:11:43.296Z,15.95
2023-03-21T13:14:16.850Z,15.91
2023-03-21T13:16:50.800Z,15.89
2023-03-21T13:19:28.076Z,15.98
2023-03-21T13:22:01.922Z,15.77
2023-03-21T13:24:34.794Z,15.78
2023-03-21T13:27:06.943Z,15.56
2023-03-21T13:29:44.298Z,15.44
2023-03-21T13:32:19.921Z,15.54
2023-03-21T13:34:55.662Z,15.60
2023-03-21T13:37:26.363Z,15.62
2023-03-21T13:39:54.288Z,15.52
2023-03-21T13:42:25.332Z,15.32
2023-03-21T13:44:56.380Z,14.94
2023-03-21T13:47:41.994Z,15.23
2023-03-21T13:50:28.465Z,15.49
2023-03-21T13:53:31.676Z,14.92
2023-03-21T13:56:25.349Z,14.52
2023-03-21T13:58:56.135Z,14.36
2023-03-21T14:01:35.550Z,14.56
2023-03-21T14:04:16.026Z,14.70
2023-03-21T14:06:48.054Z,14.37
2023-03-21T14:09:22.596Z,14.36
2023-03-21T14:11:54.667Z,14.36
2023-03-21T14:14:28.136Z,14.22
2023-03-21T14:16:55.946Z,14.21
2023-03-21T14:19:33.341Z,14.14
2023-03-21T14:22:01.074Z,13.97
2023-03-21T14:24:28.921Z,14.24
2023-03-21T14:26:57.046Z,14.06
2023-03-21T14:29:27.336Z,13.96
2023-03-21T14:31:56.542Z,14.11
2023-03-21T14:34:27.618Z,14.34
2023-03-21T14:36:59.132Z,14.45
2023-03-21T14:39:30.743Z,14.19
2023-03-21T14:42:04.068Z,14.11
2023-03-21T14:44:44.143Z,14.40
2023-03-21T14:47:20.481Z,14.76
2023-03-21T14:49:50.603Z,14.48
2023-03-21T14:52:24.867Z,14.25
2023-03-21T14:54:53.746Z,14.34
2023-03-21T14:57:25.089Z,14.33
2023-03-21T14:59:56.132Z,14.58
2023-03-21T15:02:28.321Z,14.18
2023-03-21T15:04:58.698Z,14.07
2023-03-21T15:07:30.549Z,14.57
2023-03-21T15:10:03.611Z,14.48
2023-03-21T15:12:31.454Z,14.48
2023-03-21T15:15:01.338Z,14.44
2023-03-21T15:17:30.655Z,14.41
2023-03-21T15:19:58.534Z,14.32
2023-03-21T15:22:33.463Z,13.63
2023-03-21T15:25:05.909Z,13.75
2023-03-21T15:27:35.978Z,13.99
2023-03-21T15:30:03.896Z,14.10
2023-03-21T15:32:31.623Z,14.34
2023-03-21T15:35:07.504Z,14.44
2023-03-21T15:37:38.924Z,14.64
2023-03-21T15:40:17.871Z,14.66
2023-03-21T15:42:46.033Z,14.11
2023-03-21T15:45:22.496Z,14.27
2023-03-21T15:47:55.997Z,14.02
2023-03-21T15:50:29.329Z,14.33
2023-03-21T15:53:01.760Z,14.31
2023-03-21T15:55:36.023Z,13.71
2023-03-21T15:58:07.249Z,13.85
2023-03-21T16:00:40.845Z,13.83
2023-03-21T16:03:16.862Z,14.13
2023-03-21T16:06:03.552Z,14.27
2023-03-21T16:08:36.393Z,13.87
2023-03-21T16:11:09.213Z,13.66
2023-03-21T16:13:37.252Z,13.94
2023-03-21T16:16:05.329Z,14.18
2023-03-21T16:18:33.288Z,14.26
2023-03-21T16:21:01.007Z,14.04
2023-03-21T16:23:28.768Z,13.49
2023-03-21T16:25:58.935Z,13.33
2023-03-21T16:28:26.598Z,13.18
2023-03-21T16:30:54.234Z,13.11
2023-03-21T16:33:21.884Z,13.04
2023-03-21T16:35:49.699Z,13.22
2023-03-21T16:38:17.481Z,13.50
2023-03-21T16:40:45.403Z,13.55
2023-03-21T16:43:14.369Z,13.49
2023-03-21T16:45:42.554Z,13.38
2023-03-21T16:48:16.418Z,13.77
2023-03-21T16:50:48.039Z,13.93
2023-03-21T16:53:17.121Z,13.89
2023-03-21T16:55:44.968Z,13.87
2023-03-21T16:58:16.513Z,13.82
2023-03-21T17:00:44.609Z,13.62
2023-03-21T17:03:18.096Z,13.68
2023-03-21T17:05:46.456Z,14.03
2023-03-21T17:08:18.679Z,14.04
2023-03-21T17:10:47.381Z,14.03
2023-03-21T17:13:16.427Z,13.92
2023-03-21T17:15:44.135Z,13.60
2023-03-21T17:18:12.931Z,13.49
2023-03-21T17:20:41.923Z,13.67
2023-03-21T17:23:10.330Z,13.41
2023-03-21T17:25:38.155Z,13.14
2023-03-21T17:28:05.938Z,13.36
2023-03-21T17:30:39.144Z,13.53
2023-03-21T17:33:07.544Z,13.45
2023-03-21T17:35:35.230Z,13.31
2023-03-21T17:38:03.093Z,13.30
2023-03-21T17:40:32.699Z,13.53
2023-03-21T17:43:01.274Z,13.78
2023-03-21T17:45:29.802Z,13.38
2023-03-21T17:47:58.935Z,13.32
2023-03-21T17:50:34.011Z,13.00
2023-03-21T17:53:01.688Z,13.04
2023-03-21T17:55:29.626Z,13.11
2023-03-21T17:57:57.432Z,13.19
2023-03-21T18:00:28.122Z,13.69
2023-03-21T18:02:56.198Z,13.21
2023-03-21T18:05:26.500Z,12.88
2023-03-21T18:08:12.781Z,13.49
2023-03-21T18:10:41.938Z,13.54
2023-03-21T18:13:09.842Z,13.32
2023-03-21T18:15:38.397Z,13.22
2023-03-21T18:18:06.688Z,12.75
2023-03-21T18:20:51.089Z,12.98
2023-03-21T18:23:19.823Z,12.78
2023-03-21T18:25:47.847Z,12.71
2023-03-21T18:28:20.364Z,12.23
2023-03-21T18:31:07.353Z,12.15
2023-03-21T18:33:37.724Z,12.04
2023-03-21T18:36:08.169Z,11.92
2023-03-21T18:38:37.053Z,11.87
2023-03-21T18:41:05.202Z,11.69
2023-03-21T18:46:21.076Z,11.51
2023-03-21T18:48:49.281Z,11.39
2023-03-21T18:51:19.260Z,11.29
2023-03-21T18:53:47.573Z,11.15
2023-03-21T18:56:57.703Z,11.07
2023-03-21T18:59:03.597Z,10.92
2023-03-21T19:01:32.489Z,10.97
2023-03-21T19:04:20.007Z,10.90
2023-03-21T19:06:51.407Z,10.86
2023-03-21T19:09:19.291Z,10.72
2023-03-21T19:11:47.235Z,10.68
2023-03-21T19:14:16.959Z,10.55
2023-03-21T19:17:26.448Z,10.36
2023-03-21T19:19:33.718Z,10.42
2023-03-21T19:22:02.916Z,10.53
2023-03-21T19:24:31.274Z,10.59
2023-03-21T19:26:59.146Z,10.51
2023-03-21T19:29:27.016Z,10.54
2023-03-21T19:31:55.126Z,10.53
2023-03-21T19:34:22.979Z,10.33
2023-03-21T19:36:52.333Z,10.26
2023-03-21T19:39:22.843Z,10.17
2023-03-21T19:41:51.178Z,10.21
2023-03-21T19:44:19.735Z,10.17
2023-03-21T19:46:48.535Z,10.17
2023-03-21T19:49:22.147Z,10.20
2023-03-21T19:51:51.276Z,10.24
2023-03-21T19:54:19.328Z,10.25
2023-03-21T19:56:49.401Z,10.25
2023-03-21T19:59:17.817Z,10.21
2023-03-21T20:01:46.117Z,10.11
2023-03-21T20:04:14.894Z,10.04
2023-03-21T20:06:42.892Z,10.14
2023-03-21T20:09:49.211Z,10.17
2023-03-21T20:12:02.516Z,10.14
2023-03-21T20:14:30.529Z,10.14
2023-03-21T20:16:58.517Z,9.98
2023-03-21T20:19:27.286Z,9.99
2023-03-21T20:21:59.818Z,9.92
2023-03-21T20:24:30.439Z,10.00
2023-03-21T20:27:00.733Z,9.95
2023-03-21T20:30:07.691Z,9.95
2023-03-21T20:32:16.679Z,9.69
2023-03-21T20:34:46.113Z,9.49
2023-03-21T20:37:14.324Z,9.40
2023-03-21T20:39:42.643Z,9.27
2023-03-21T20:42:11.714Z,9.38
2023-03-21T20:44:57.275Z,9.43
2023-03-21T20:47:25.972Z,9.41
2023-03-21T20:49:54.368Z,9.27
2023-03-21T20:55:11.517Z,9.18
2023-03-21T20:57:41.080Z,9.15
2023-03-21T21:00:13.814Z,9.15
2023-03-21T21:02:42.882Z,9.04
2023-03-21T21:05:25.298Z,9.08
2023-03-21T21:07:56.451Z,9.16
2023-03-21T21:10:24.603Z,9.15
2023-03-21T21:12:54.832Z,9.24
2023-03-21T21:15:22.533Z,9.25
2023-03-21T21:18:05.473Z,9.23
2023-03-21T21:20:34.825Z,9.22
2023-03-21T21:23:02.769Z,9.34
2023-03-21T21:25:33.880Z,9.38
2023-03-21T21:28:03.112Z,9.39
2023-03-21T21:30:31.673Z,9.46
2023-03-21T21:33:00.613Z,9.39
2023-03-21T21:35:28.335Z,9.48
2023-03-21T21:37:56.004Z,9.56
2023-03-21T21:42:29.360Z,9.59
2023-03-21T21:44:57.071Z,9.54
2023-03-21T21:47:24.808Z,9.63
2023-03-21T21:49:52.417Z,9.56
2023-03-21T21:52:22.183Z,9.67
2023-03-21T21:54:51.536Z,9.69
2023-03-21T21:57:20.152Z,9.61
2023-03-21T21:59:53.914Z,9.62
2023-03-21T22:02:25.434Z,9.60
2023-03-21T22:04:55.695Z,9.64
2023-03-21T22:07:25.099Z,9.76
2023-03-21T22:09:52.886Z,9.73
2023-03-21T22:12:20.743Z,9.63
2023-03-21T22:14:49.794Z,9.69
2023-03-21T22:17:18.032Z,9.73
2023-03-21T22:19:58.888Z,9.72
2023-03-21T22:22:32.366Z,9.63
2023-03-21T22:25:00.020Z,9.52
2023-03-21T22:27:27.687Z,9.45
2023-03-21T22:29:56.899Z,9.56
2023-03-21T22:32:24.550Z,9.53
2023-03-21T22:34:52.235Z,9.50
2023-03-21T22:37:19.849Z,9.45
2023-03-21T22:39:47.459Z,9.19
2023-03-21T22:42:15.472Z,9.18
2023-03-21T22:44:43.464Z,9.37
2023-03-21T22:47:12.590Z,9.49
2023-03-21T22:49:42.503Z,9.55
2023-03-21T22:52:11.372Z,9.47
2023-03-21T22:54:39.238Z,9.40
2023-03-21T22:57:08.584Z,9.35
2023-03-21T22:59:36.222Z,9.26
2023-03-21T23:02:03.895Z,9.15
2023-03-21T23:04:33.208Z,9.20
2023-03-21T23:07:01.201Z,9.26
2023-03-21T23:09:29.368Z,9.14
2023-03-21T23:11:57.170Z,9.11
2023-03-21T23:14:25.519Z,9.08
2023-03-21T23:16:54.979Z,9.04
2023-03-21T23:19:25.322Z,8.88
2023-03-21T23:21:55.751Z,8.97
2023-03-21T23:24:24.554Z,8.90
2023-03-21T23:26:52.288Z,8.91
2023-03-21T23:29:20.010Z,8.75
2023-03-21T23:31:47.980Z,8.77
2023-03-21T23:34:15.786Z,8.67
2023-03-21T23:36:43.762Z,8.52
2023-03-21T23:39:12.955Z,8.42
2023-03-21T23:41:42.895Z,8.34
2023-03-21T23:44:10.688Z,8.39
2023-03-21T23:46:38.498Z,8.41
2023-03-21T23:49:06.499Z,8.29
2023-03-21T23:51:34.182Z,8.31
2023-03-21T23:54:01.899Z,8.31
2023-03-21T23:56:31.978Z,8.37
2023-03-21T23:58:59.882Z,8.34
